Time;durP1;ratioP1;P1;durP2;ratioP2;P2;SDS_P1;SDS_P2;PMS_P1;PMS_P2;Temp;Humidity;BMP_temperature;BMP_pressure;BME280_temperature;BME280_humidity;BME280_pressure;Samples;Min_cycle;Max_cycle;Signal;HPM_P1;HPM_P2
2022/05/10 00:02:01;;;;;;;4.03;2.90;;;15.10;99.90;;;;;;6181014;23;20001;-87
2022/05/10 00:04:27;;;;;;;5.68;3.25;;;15.10;99.90;;;;;;6181445;23;20087;-87
2022/05/10 00:06:54;;;;;;;5.63;3.63;;;15.00;99.90;;;;;;6180987;23;20039;-87
2022/05/10 00:09:27;;;;;;;5.63;3.38;;;14.90;99.90;;;;;;6155335;23;20009;-87
2022/05/10 00:11:53;;;;;;;5.60;3.35;;;14.90;99.90;;;;;;6157548;23;20430;-88
2022/05/10 00:14:19;;;;;;;5.57;3.42;;;14.70;99.90;;;;;;6157941;23;20080;-87
2022/05/10 00:16:45;;;;;;;5.53;3.53;;;15.00;99.90;;;;;;6182158;23;20020;-87
2022/05/10 00:19:14;;;;;;;6.25;3.30;;;14.90;99.90;;;;;;6180981;23;20032;-86
2022/05/10 00:21:40;;;;;;;5.95;3.42;;;15.10;99.90;;;;;;6155551;23;20009;-87
2022/05/10 00:24:06;;;;;;;6.88;3.83;;;14.80;99.90;;;;;;6153894;23;19997;-86
2022/05/10 00:26:32;;;;;;;6.55;3.90;;;14.80;99.90;;;;;;6154194;23;20009;-87
2022/05/10 00:28:57;;;;;;;5.70;3.13;;;14.90;99.90;;;;;;6155983;23;20008;-87
2022/05/10 00:31:23;;;;;;;6.20;3.63;;;15.00;99.90;;;;;;6180851;23;20020;-87
2022/05/10 00:33:49;;;;;;;6.82;3.67;;;14.70;99.90;;;;;;6155016;23;20359;-87
2022/05/10 00:36:18;;;;;;;6.45;3.72;;;14.90;99.90;;;;;;6153721;23;20005;-87
2022/05/10 00:38:44;;;;;;;7.82;4.00;;;14.70;99.90;;;;;;6154592;23;20005;-87
2022/05/10 00:41:39;;;;;;;7.43;4.40;;;14.90;99.90;;;;;;6181183;23;20131;-87
2022/05/10 00:44:22;;;;;;;6.40;3.70;;;14.70;99.90;;;;;;6145146;23;20009;-87
2022/05/10 00:47:17;;;;;;;6.65;4.25;;;14.70;99.90;;;;;;6154318;23;20465;-86
2022/05/10 00:50:20;;;;;;;6.20;3.83;;;14.70;99.90;;;;;;6154939;23;20011;-86
2022/05/10 00:52:57;;;;;;;6.53;3.63;;;14.70;99.90;;;;;;6154479;23;20005;-87
2022/05/10 00:55:35;;;;;;;7.32;4.22;;;14.60;99.90;;;;;;6155100;23;20001;-87
2022/05/10 00:58:29;;;;;;;6.85;3.53;;;14.60;99.90;;;;;;6154235;23;20027;-87
2022/05/10 01:00:55;;;;;;;7.03;4.07;;;14.60;99.90;;;;;;6178331;23;20323;-87
2022/05/10 01:03:30;;;;;;;6.55;4.15;;;14.60;99.90;;;;;;6154927;23;20495;-87
2022/05/10 01:06:21;;;;;;;7.32;4.22;;;14.80;99.90;;;;;;6154203;23;20024;-87
2022/05/10 01:09:13;;;;;;;6.07;3.72;;;14.60;99.90;;;;;;6155085;23;20008;-86
2022/05/10 01:11:47;;;;;;;6.63;4.13;;;14.50;99.90;;;;;;6180971;23;20001;-87
2022/05/10 01:14:24;;;;;;;6.28;3.88;;;14.50;99.90;;;;;;6153300;23;20088;-86
2022/05/10 01:16:50;;;;;;;5.80;3.53;;;14.40;99.90;;;;;;6154491;23;20005;-86
2022/05/10 01:19:16;;;;;;;7.38;4.10;;;14.50;99.90;;;;;;6155207;23;20100;-88
2022/05/10 01:21:59;;;;;;;6.85;3.92;;;14.40;99.90;;;;;;6181390;23;20384;-87
2022/05/10 01:24:49;;;;;;;5.78;3.65;;;14.40;99.90;;;;;;6154505;23;20052;-87
2022/05/10 01:27:38;;;;;;;6.38;3.90;;;14.30;99.90;;;;;;6154743;23;20301;-87
2022/05/10 01:30:18;;;;;;;6.60;3.67;;;14.30;99.90;;;;;;6162847;23;20092;-86
2022/05/10 01:36:08;;;;;;;;;;;14.30;99.90;;;;;;6182744;23;20015;-87
2022/05/10 01:39:00;;;;;;;6.22;3.38;;;14.30;99.90;;;;;;6182490;23;19975;-87
2022/05/10 01:41:54;;;;;;;6.55;3.95;;;14.30;99.90;;;;;;6156133;23;20013;-87
2022/05/10 01:44:41;;;;;;;5.88;3.90;;;14.20;99.90;;;;;;6155460;23;20013;-87
2022/05/10 01:47:12;;;;;;;5.15;3.80;;;14.20;99.90;;;;;;6155908;23;20009;-87
2022/05/10 01:49:46;;;;;;;5.95;3.67;;;14.10;99.90;;;;;;6156332;23;20505;-87
2022/05/10 01:52:48;;;;;;;6.30;4.13;;;14.00;99.90;;;;;;6155825;23;20076;-87
2022/05/10 01:55:31;;;;;;;7.13;4.13;;;14.00;99.90;;;;;;6111598;23;20040;-87
2022/05/10 01:58:20;;;;;;;5.82;3.88;;;14.00;99.90;;;;;;6155708;23;20073;-88
2022/05/10 02:00:54;;;;;;;9.85;4.32;;;14.00;99.90;;;;;;6182402;23;20001;-88
2022/05/10 02:03:45;;;;;;;5.90;3.70;;;14.20;99.90;;;;;;6182485;23;20037;-87
2022/05/10 02:06:32;;;;;;;7.45;3.88;;;13.90;99.90;;;;;;6155146;23;20016;-87
2022/05/10 02:09:16;;;;;;;7.57;4.18;;;13.90;99.90;;;;;;6182104;23;20001;-86
2022/05/10 02:12:08;;;;;;;9.57;4.50;;;13.90;99.90;;;;;;6156130;23;20001;-86
2022/05/10 02:14:39;;;;;;;7.90;3.92;;;13.90;99.90;;;;;;6182687;23;19997;-87
2022/05/10 02:17:13;;;;;;;8.85;4.22;;;13.70;99.90;;;;;;6181240;23;20399;-86
2022/05/10 02:20:10;;;;;;;6.57;3.97;;;13.90;99.90;;;;;;6156501;23;20020;-87
2022/05/10 02:22:46;;;;;;;6.93;4.25;;;13.80;99.90;;;;;;6182185;23;20001;-86
2022/05/10 02:25:20;;;;;;;6.20;4.22;;;13.90;99.90;;;;;;6155507;23;20457;-87
2022/05/10 02:27:51;;;;;;;8.13;4.50;;;13.80;99.90;;;;;;6156368;23;20027;-87
2022/05/10 02:33:17;;;;;;;7.70;4.78;;;13.70;99.90;;;;;;6197792;22;20021;-91
2022/05/10 02:36:00;;;;;;;7.88;4.60;;;13.40;99.90;;;;;;6198538;23;20009;-90
2022/05/10 02:38:42;;;;;;;7.22;4.45;;;13.60;99.90;;;;;;6201096;23;20016;-91
2022/05/10 02:41:47;;;;;;;7.53;3.97;;;13.70;99.90;;;;;;6198545;23;20001;-90
2022/05/10 02:44:19;;;;;;;8.45;4.50;;;13.40;99.90;;;;;;6175077;23;20085;-91
2022/05/10 02:49:58;;;;;;;;;;;;;;;;;;;;;
2022/05/10 02:52:31;;;;;;;;;;;;;;;;;;;;;
2022/05/10 02:55:35;;;;;;;7.35;4.68;;;13.60;99.90;;;;;;6200429;23;20024;-92
2022/05/10 02:59:00;;;;;;;7.43;4.68;;;13.50;99.90;;;;;;6224773;23;20163;-92
2022/05/10 03:02:12;;;;;;;6.90;4.25;;;13.50;99.90;;;;;;6079800;23;20015;-92
2022/05/10 03:04:57;;;;;;;7.30;4.72;;;13.50;99.90;;;;;;6124666;23;20069;-92
2022/05/10 03:07:34;;;;;;;6.95;4.10;;;13.70;99.90;;;;;;6195221;23;20027;-92
2022/05/10 03:10:22;;;;;;;7.40;5.03;;;13.40;99.90;;;;;;6193457;23;20048;-92
2022/05/10 03:13:03;;;;;;;8.45;4.85;;;13.40;99.90;;;;;;6191804;23;20040;-92
2022/05/10 03:15:44;;;;;;;7.43;4.78;;;13.30;99.90;;;;;;6191582;23;20017;-92
2022/05/10 03:18:23;;;;;;;8.27;4.82;;;13.80;99.90;;;;;;6192022;23;20028;-92
2022/05/10 03:21:10;;;;;;;7.35;4.85;;;13.30;99.90;;;;;;6193317;23;20075;-91
2022/05/10 03:23:52;;;;;;;8.18;5.30;;;13.30;99.90;;;;;;6192132;23;20009;-91
2022/05/10 03:26:26;;;;;;;8.25;5.20;;;13.30;99.90;;;;;;6191347;23;20010;-90
2022/05/10 03:29:04;;;;;;;8.57;5.15;;;13.40;99.90;;;;;;6192242;23;20029;-92
2022/05/10 03:32:00;;;;;;;8.55;5.10;;;13.60;99.90;;;;;;6191421;23;20016;-92
2022/05/10 03:34:59;;;;;;;9.52;5.32;;;13.20;99.90;;;;;;6194192;23;20009;-92
2022/05/10 03:37:46;;;;;;;8.32;5.10;;;13.10;99.90;;;;;;6190130;23;20113;-92
2022/05/10 03:40:59;;;;;;;8.93;5.13;;;13.20;99.90;;;;;;6192531;23;20006;-92
2022/05/10 03:43:42;;;;;;;8.88;4.95;;;13.20;99.90;;;;;;6180633;23;20001;-91
2022/05/10 03:46:16;;;;;;;9.90;4.85;;;13.50;99.90;;;;;;6190995;23;20017;-91
2022/05/10 03:49:15;;;;;;;8.18;5.50;;;13.20;99.90;;;;;;6192001;23;20005;-89
2022/05/10 03:51:45;;;;;;;9.70;5.25;;;13.20;99.90;;;;;;6196086;23;20036;-92
2022/05/10 03:54:20;;;;;;;8.45;5.35;;;13.10;99.90;;;;;;6170447;23;20028;-91
2022/05/10 03:56:50;;;;;;;9.02;5.38;;;13.20;99.90;;;;;;6171647;23;20001;-92
2022/05/10 04:02:33;;;;;;;7.40;5.05;;;13.30;99.90;;;;;;6167114;23;20108;-91
2022/05/10 04:05:16;;;;;;;9.70;5.77;;;13.10;99.90;;;;;;6167824;23;20008;-92
2022/05/10 04:08:14;;;;;;;;;;;;;;;;;;;;;
2022/05/10 04:10:52;;;;;;;6.95;4.60;;;13.10;99.90;;;;;;6194416;23;20016;-91
2022/05/10 04:13:25;;;;;;;8.77;5.07;;;13.60;99.90;;;;;;6167069;23;20013;-92
2022/05/10 04:16:08;;;;;;;7.30;4.70;;;13.30;99.90;;;;;;6168292;23;20015;-91
2022/05/10 04:18:40;;;;;;;7.38;4.78;;;13.20;99.90;;;;;;6167368;23;20009;-91
2022/05/10 04:21:12;;;;;;;;;;;13.10;99.90;;;;;;6165528;23;20005;-90
2022/05/10 04:24:26;;;;;;;8.20;5.30;;;13.20;99.90;;;;;;6165876;23;19911;-91
2022/05/10 04:27:08;;;;;;;6.90;4.28;;;13.10;99.90;;;;;;6165228;23;20084;-91
2022/05/10 04:30:00;;;;;;;9.18;4.75;;;13.10;99.90;;;;;;6164967;23;20470;-91
2022/05/10 04:32:38;;;;;;;8.55;4.88;;;13.10;99.90;;;;;;6163861;23;20077;-91
2022/05/10 04:35:10;;;;;;;8.90;5.13;;;13.10;99.90;;;;;;6138942;23;20028;-91
2022/05/10 04:37:42;;;;;;;;;;;13.10;99.90;;;;;;6166433;23;20040;-92
2022/05/10 04:43:38;;;;;;;;;;;;;;;;;;;;;
2022/05/10 04:46:41;;;;;;;9.82;5.38;;;13.20;99.90;;;;;;6192899;23;20036;-92
2022/05/10 04:49:21;;;;;;;8.23;4.90;;;13.20;99.90;;;;;;6129372;23;20007;-91
2022/05/10 04:51:58;;;;;;;7.97;5.20;;;13.40;99.90;;;;;;6167930;23;20001;-91
2022/05/10 04:54:37;;;;;;;;;;;;;;;;;;;;;
2022/05/10 04:57:22;;;;;;;8.38;5.38;;;13.80;99.90;;;;;;6194746;23;20013;-91
2022/05/10 05:04:17;;;;;;;9.25;5.10;;;13.70;99.90;;;;;;6196230;23;20015;-93
2022/05/10 11:25:42;;;;;;;2.20;1.13;;;27.00;80.80;;;;;;6183336;22;20024;-91
2022/05/10 12:23:19;;;;;;;;;;;;;;;;;;;;;
2022/05/10 12:26:29;;;;;;;3.40;1.05;;;27.80;66.90;;;;;;6191944;23;20035;-91
2022/05/10 13:25:00;;;;;;;;;;;;;;;;;;;;;
2022/05/10 13:54:45;;;;;;;;;;;;;;;;;;;;;
2022/05/10 14:04:30;;;;;;;1.52;0.85;;;28.70;60.20;;;;;;6072460;23;20018;-92
2022/05/10 14:17:56;;;;;;;2.92;1.20;;;29.30;60.40;;;;;;6188449;23;20028;-88
2022/05/10 14:24:02;;;;;;;2.72;1.30;;;29.00;62.40;;;;;;6173896;23;20009;-89
2022/05/10 14:30:24;;;;;;;2.20;1.17;;;28.50;62.90;;;;;;6174090;23;19998;-89
2022/05/10 14:33:42;;;;;;;;;;;;;;;;;;;;;
2022/05/10 14:37:08;;;;;;;;;;;;;;;;;;;;;
2022/05/10 14:40:06;;;;;;;2.90;1.20;;;27.50;63.00;;;;;;6178161;23;20194;-88
2022/05/10 14:43:02;;;;;;;;;;;;;;;;;;;;;
2022/05/10 14:49:29;;;;;;;2.10;1.15;;;27.80;61.90;;;;;;6173143;23;20067;-87
2022/05/10 14:52:30;;;;;;;3.53;1.17;;;28.10;61.60;;;;;;6178335;23;20005;-88
2022/05/10 14:55:11;;;;;;;;;;;28.40;62.10;;;;;;6152312;23;20062;-86
2022/05/10 14:57:52;;;;;;;2.03;1.10;;;28.50;62.50;;;;;;6154572;23;19954;-87
2022/05/10 15:00:49;;;;;;;1.48;1.00;;;28.50;62.80;;;;;;6180999;23;20055;-87
2022/05/10 15:03:27;;;;;;;5.28;1.13;;;28.40;63.00;;;;;;6181237;23;20053;-87
2022/05/10 15:06:31;;;;;;;1.73;1.00;;;28.00;64.30;;;;;;6155287;23;20108;-87
2022/05/10 15:09:08;;;;;;;2.45;1.27;;;27.70;62.20;;;;;;6185981;23;20001;-88
2022/05/10 15:22:16;;;;;;;1.58;0.90;;;27.40;64.30;;;;;;6151404;23;20019;-87
2022/05/10 15:25:02;;;;;;;2.15;1.10;;;27.40;63.60;;;;;;6148504;23;20097;-87
2022/05/10 15:31:02;;;;;;;3.03;1.17;;;27.50;64.40;;;;;;6131657;23;20615;-88
2022/05/10 15:37:32;;;;;;;;;;;;;;;;;;;;;
2022/05/10 15:43:38;;;;;;;;;;;;;;;;;;;;;
2022/05/10 15:46:42;;;;;;;2.58;1.30;;;27.20;65.00;;;;;;6148997;23;20121;-88
2022/05/10 15:49:24;;;;;;;3.53;1.60;;;27.00;66.40;;;;;;6145204;23;20032;-87
2022/05/10 15:51:58;;;;;;;2.13;1.08;;;26.90;67.00;;;;;;6146819;23;20006;-88
2022/05/10 15:54:38;;;;;;;2.50;1.27;;;26.60;67.80;;;;;;6148333;23;20016;-88
2022/05/10 15:57:20;;;;;;;;;;;;;;;;;;;;;
2022/05/10 16:00:24;;;;;;;3.25;1.35;;;26.20;68.70;;;;;;6148649;23;20076;-88
2022/05/10 16:05:59;;;;;;;3.42;1.45;;;25.90;69.80;;;;;;6147674;23;20064;-88
2022/05/10 16:09:22;;;;;;;3.40;1.48;;;25.80;70.30;;;;;;6147575;23;20008;-88
2022/05/10 16:11:57;;;;;;;3.78;1.58;;;25.60;70.60;;;;;;6148883;23;20006;-88
2022/05/10 16:14:29;;;;;;;2.92;1.48;;;25.40;71.70;;;;;;6146897;23;20013;-88
2022/05/10 16:17:29;;;;;;;4.50;1.30;;;25.30;71.90;;;;;;6147128;23;20017;-88
2022/05/10 16:20:09;;;;;;;3.00;1.30;;;25.20;72.30;;;;;;6146931;23;20388;-87
2022/05/10 16:23:14;;;;;;;2.47;1.45;;;25.20;72.80;;;;;;6148965;23;20018;-88
2022/05/10 16:31:33;;;;;;;3.72;1.65;;;25.30;73.20;;;;;;6149855;23;20056;-86
2022/05/10 16:33:59;;;;;;;2.13;1.30;;;25.30;73.70;;;;;;6149953;23;20569;-87
2022/05/10 16:36:25;;;;;;;3.20;1.85;;;25.20;73.90;;;;;;6146922;23;20010;-88
2022/05/10 16:38:51;;;;;;;4.53;1.83;;;25.20;74.20;;;;;;6149059;23;20016;-87
2022/05/10 16:41:29;;;;;;;3.45;1.70;;;25.20;75.00;;;;;;6148022;23;20001;-89
2022/05/10 16:44:33;;;;;;;2.65;1.30;;;25.10;74.10;;;;;;6149641;23;20006;-88
2022/05/10 16:47:28;;;;;;;3.08;1.48;;;25.10;73.50;;;;;;6148380;23;20009;-88
2022/05/10 16:50:00;;;;;;;3.15;1.88;;;25.10;74.00;;;;;;6138443;23;20238;-87
2022/05/10 16:52:35;;;;;;;2.70;1.40;;;24.90;74.10;;;;;;6150008;23;20009;-87
2022/05/10 16:55:01;;;;;;;4.65;2.13;;;25.00;74.00;;;;;;6148000;23;20001;-87
2022/05/10 16:57:27;;;;;;;2.80;1.70;;;24.80;74.60;;;;;;6147646;23;20013;-87
2022/05/10 17:00:03;;;;;;;3.15;1.75;;;24.70;74.80;;;;;;6148983;23;20470;-88
2022/05/10 17:02:41;;;;;;;3.05;1.80;;;24.60;75.10;;;;;;6149100;23;20006;-87
2022/05/10 17:05:22;;;;;;;3.88;1.60;;;24.50;75.80;;;;;;6151185;23;20001;-87
2022/05/10 17:07:52;;;;;;;5.18;2.30;;;24.50;76.20;;;;;;6151431;23;20008;-86
2022/05/10 17:10:35;;;;;;;4.03;1.90;;;24.50;76.60;;;;;;6153569;23;20073;-87
2022/05/10 17:13:06;;;;;;;3.75;1.50;;;24.40;76.80;;;;;;6161428;23;20033;-87
2022/05/10 17:15:36;;;;;;;2.83;1.73;;;24.60;77.60;;;;;;6156532;23;20005;-87
2022/05/10 17:18:06;;;;;;;3.20;1.60;;;24.30;76.80;;;;;;6151531;23;20037;-87
2022/05/10 17:21:16;;;;;;;4.93;1.98;;;24.30;77.20;;;;;;6153846;23;20432;-86
2022/05/10 17:30:42;;;;;;;2.15;1.30;;;24.40;77.20;;;;;;6063004;23;20003;-87
2022/05/10 17:33:41;;;;;;;4.45;1.75;;;24.30;77.30;;;;;;6068672;23;20058;-87
2022/05/10 17:47:35;;;;;;;3.00;1.70;;;24.20;78.20;;;;;;6153362;23;20035;-87
2022/05/10 17:54:48;;;;;;;;;;;;;;;;;;;;;
2022/05/10 17:57:53;;;;;;;3.33;1.83;;;24.10;79.10;;;;;;5909377;24;20125;-87
2022/05/10 18:04:33;;;;;;;2.67;1.40;;;23.90;80.10;;;;;;6013289;23;20055;-87
2022/05/10 18:07:40;;;;;;;3.70;1.80;;;23.70;79.10;;;;;;6011710;23;20027;-87
2022/05/10 18:14:04;;;;;;;3.75;1.85;;;23.70;79.60;;;;;;5997836;23;20350;-87
2022/05/10 18:17:11;;;;;;;3.95;1.95;;;23.60;80.10;;;;;;6009358;23;20019;-86
2022/05/10 18:20:04;;;;;;;;;;;;;;;;;;;;;
2022/05/10 18:25:44;;;;;;;3.10;1.55;;;23.30;80.90;;;;;;6042603;23;20013;-86
2022/05/10 18:28:51;;;;;;;3.22;1.77;;;23.20;81.80;;;;;;6038996;23;20158;-86
2022/05/10 18:31:46;;;;;;;4.28;2.08;;;23.20;81.30;;;;;;6037366;23;20012;-87
2022/05/10 18:34:37;;;;;;;4.10;1.95;;;23.20;81.30;;;;;;6113348;23;20001;-87
2022/05/10 18:37:32;;;;;;;2.92;1.65;;;23.10;81.60;;;;;;6154538;23;20458;-86
2022/05/10 18:40:06;;;;;;;4.10;1.60;;;23.00;82.00;;;;;;6156793;23;19997;-87
2022/05/10 19:09:27;;;;;;;4.05;2.15;;;22.10;87.30;;;;;;6125462;23;20018;-84
2022/05/10 19:16:22;;;;;;;4.20;1.98;;;21.80;89.90;;;;;;6093613;23;20014;-84
2022/05/10 19:19:51;;;;;;;4.50;1.95;;;21.70;90.00;;;;;;6075782;23;20007;-85
2022/05/10 19:22:56;;;;;;;;;;;;;;;;;;;;;
2022/05/10 19:26:08;;;;;;;;;;;;;;;;;;;;;
2022/05/10 19:28:44;;;;;;;3.53;1.88;;;21.40;89.80;;;;;;6153904;23;20077;-85
2022/05/10 19:31:33;;;;;;;3.15;1.88;;;21.40;90.20;;;;;;6177826;23;20021;-84
2022/05/10 19:34:09;;;;;;;4.05;2.45;;;21.30;90.60;;;;;;6178053;23;20031;-84
2022/05/10 19:37:21;;;;;;;4.07;1.73;;;21.20;91.30;;;;;;6170497;23;20013;-84
2022/05/10 19:40:18;;;;;;;;;;;;;;;;;;;;;
2022/05/10 19:43:03;;;;;;;3.50;1.90;;;21.00;91.80;;;;;;6158659;23;20032;-84
2022/05/10 19:45:57;;;;;;;4.30;2.10;;;20.90;92.10;;;;;;6179294;23;20343;-84
2022/05/10 19:52:06;;;;;;;3.95;1.98;;;20.80;92.30;;;;;;6156325;23;20034;-84
2022/05/10 19:54:40;;;;;;;5.45;2.28;;;20.80;92.80;;;;;;6177423;23;20088;-84
2022/05/10 19:57:34;;;;;;;3.55;1.80;;;20.70;93.10;;;;;;6175602;23;20108;-84
2022/05/10 20:00:18;;;;;;;4.15;2.17;;;20.60;93.30;;;;;;6175927;23;20016;-84
2022/05/10 20:05:33;;;;;;;4.00;2.30;;;20.50;93.20;;;;;;6153561;23;20032;-85
2022/05/10 20:08:14;;;;;;;4.43;2.30;;;20.50;93.60;;;;;;6152405;23;20023;-84
2022/05/10 20:10:47;;;;;;;6.60;2.22;;;20.60;93.90;;;;;;6177530;23;20006;-85
2022/05/10 20:13:20;;;;;;;3.30;1.98;;;20.50;93.80;;;;;;6152214;23;20001;-85
2022/05/10 20:15:49;;;;;;;5.65;2.33;;;20.50;93.90;;;;;;6176815;23;20020;-84
2022/05/10 20:18:30;;;;;;;5.97;2.13;;;20.40;94.60;;;;;;6151848;23;20009;-84
2022/05/10 20:21:11;;;;;;;3.80;2.13;;;20.40;95.20;;;;;;6174139;23;20010;-84
2022/05/10 20:23:42;;;;;;;5.18;2.40;;;20.30;95.10;;;;;;6176795;23;20001;-85
2022/05/10 20:26:08;;;;;;;3.28;1.90;;;20.30;95.00;;;;;;6151277;23;20069;-85
2022/05/10 20:32:51;;;;;;;3.40;1.90;;;20.20;95.50;;;;;;6155961;23;20002;-85
2022/05/10 20:35:32;;;;;;;5.30;2.58;;;20.20;95.40;;;;;;6175618;23;19998;-86
2022/05/10 20:38:14;;;;;;;5.78;2.83;;;20.10;95.50;;;;;;6152874;23;20025;-85
2022/05/10 20:40:51;;;;;;;4.25;2.28;;;20.10;95.70;;;;;;6176380;23;20380;-85
2022/05/10 20:43:39;;;;;;;4.95;2.70;;;20.10;95.80;;;;;;6177339;23;20010;-84
2022/05/10 20:46:11;;;;;;;4.45;2.38;;;20.10;95.80;;;;;;6153966;23;20005;-86
2022/05/10 20:48:53;;;;;;;5.80;2.25;;;20.10;96.00;;;;;;6154214;23;20075;-85
2022/05/10 20:51:27;;;;;;;4.35;2.35;;;20.10;96.40;;;;;;6190385;23;20005;-85
2022/05/10 20:54:27;;;;;;;5.07;2.47;;;20.10;96.60;;;;;;6168705;23;20016;-85
2022/05/10 20:57:22;;;;;;;4.22;2.30;;;20.00;96.70;;;;;;6167535;23;20016;-85
2022/05/10 21:00:12;;;;;;;4.10;1.95;;;20.00;96.60;;;;;;6153407;23;20035;-85
2022/05/10 21:02:42;;;;;;;3.72;2.20;;;20.00;96.60;;;;;;6174042;23;20047;-85
2022/05/10 21:05:34;;;;;;;4.28;2.30;;;20.00;96.80;;;;;;6154321;23;20001;-85
2022/05/10 21:11:19;;;;;;;4.32;2.47;;;20.00;97.10;;;;;;6182134;23;20016;-85
2022/05/10 21:17:45;;;;;;;4.72;2.50;;;19.80;97.70;;;;;;6168257;23;20347;-85
2022/05/10 21:20:34;;;;;;;5.03;2.88;;;20.00;98.00;;;;;;6182407;23;20001;-85
2022/05/10 21:23:24;;;;;;;5.82;2.95;;;19.90;98.10;;;;;;6155344;23;20009;-85
2022/05/10 21:26:16;;;;;;;8.60;2.45;;;19.80;98.30;;;;;;6156978;23;20386;-86
2022/05/10 21:31:13;;;;;;;5.15;2.35;;;19.80;98.60;;;;;;6122205;23;20092;-84
2022/05/10 21:32:07;;;;;;;4.55;2.53;;;19.80;98.70;;;;;;6173832;23;20088;-85
2022/05/10 21:34:53;;;;;;;4.53;2.30;;;19.70;98.40;;;;;;6156255;23;20067;-85
2022/05/10 21:37:28;;;;;;;4.15;2.30;;;19.80;98.50;;;;;;6156070;23;20009;-86
2022/05/10 21:40:04;;;;;;;5.13;2.58;;;19.70;98.60;;;;;;6175701;23;20005;-85
2022/05/10 21:42:58;;;;;;;4.28;2.42;;;19.70;98.80;;;;;;6150169;23;20037;-85
2022/05/10 21:45:33;;;;;;;4.75;2.22;;;19.70;99.00;;;;;;6151765;23;20092;-85
2022/05/10 21:47:59;;;;;;;3.53;2.40;;;19.60;99.00;;;;;;6154722;23;19997;-85
2022/05/10 21:53:37;;;;;;;3.70;2.25;;;19.50;99.50;;;;;;6117143;23;20025;-85
2022/05/10 21:56:42;;;;;;;3.88;2.20;;;19.50;99.80;;;;;;6157144;23;20384;-85
2022/05/10 21:59:14;;;;;;;4.05;2.15;;;19.50;99.80;;;;;;6156366;23;20009;-86
2022/05/10 22:01:47;;;;;;;5.00;2.55;;;19.40;99.90;;;;;;6183182;23;20013;-85
2022/05/10 22:04:30;;;;;;;5.07;2.25;;;19.40;99.90;;;;;;6157779;23;20005;-85
2022/05/10 22:07:47;;;;;;;;;;;;;;;;;;;;;
2022/05/10 22:10:21;;;;;;;4.93;2.33;;;19.40;99.90;;;;;;6183805;23;20499;-85
2022/05/10 22:13:24;;;;;;;;;;;;;;;;;;;;;
2022/05/10 22:16:24;;;;;;;5.82;2.88;;;19.20;99.90;;;;;;6185419;23;20088;-85
2022/05/10 22:19:18;;;;;;;5.25;2.35;;;19.10;99.90;;;;;;6189076;23;20001;-85
2022/05/10 22:21:55;;;;;;;4.75;2.80;;;19.10;99.90;;;;;;6152417;23;20009;-85
2022/05/10 22:24:31;;;;;;;4.82;2.50;;;19.00;99.90;;;;;;6164085;23;20009;-85
2022/05/10 22:27:09;;;;;;;4.55;2.88;;;18.90;99.90;;;;;;6184884;23;20012;-85
2022/05/10 22:33:10;;;;;;;5.28;2.25;;;18.90;99.90;;;;;;6182513;23;20012;-85
2022/05/10 22:35:54;;;;;;;5.13;2.63;;;18.80;99.90;;;;;;6154130;23;20010;-85
2022/05/10 22:38:24;;;;;;;4.82;2.30;;;18.70;99.90;;;;;;6183652;23;20486;-85
2022/05/10 22:40:52;;;;;;;4.35;2.70;;;18.60;99.90;;;;;;6183837;23;20001;-85
2022/05/10 22:46:59;;;;;;;4.30;2.33;;;18.40;99.90;;;;;;6167109;23;20064;-85
2022/05/10 22:49:25;;;;;;;4.13;2.40;;;18.60;99.90;;;;;;6153828;23;20003;-84
2022/05/10 22:52:43;;;;;;;4.55;2.58;;;18.30;99.90;;;;;;6157340;23;20012;-85
2022/05/10 22:55:21;;;;;;;4.05;2.33;;;18.30;99.90;;;;;;6119485;23;20009;-85
2022/05/10 22:58:35;;;;;;;5.53;2.50;;;18.30;99.90;;;;;;6157341;23;20008;-85
2022/05/10 23:01:11;;;;;;;4.07;2.20;;;18.20;99.90;;;;;;6163119;23;20027;-84
2022/05/10 23:03:43;;;;;;;4.15;2.35;;;18.30;99.90;;;;;;6181986;23;20013;-85
2022/05/10 23:06:50;;;;;;;;;;;;;;;;;;;;;
2022/05/10 23:09:16;;;;;;;4.97;2.13;;;18.10;99.90;;;;;;6183808;23;20088;-84
2022/05/10 23:11:45;;;;;;;3.47;2.20;;;18.10;99.90;;;;;;6156424;23;20144;-85
2022/05/10 23:14:22;;;;;;;4.05;2.40;;;18.00;99.90;;;;;;6183142;23;20423;-84
2022/05/10 23:17:13;;;;;;;4.38;2.20;;;17.90;99.90;;;;;;6155803;23;20132;-84
2022/05/10 23:20:10;;;;;;;4.50;2.63;;;18.00;99.90;;;;;;6155423;23;20013;-85
2022/05/10 23:22:39;;;;;;;6.05;2.50;;;17.90;99.90;;;;;;6147760;23;20009;-85
2022/05/10 23:28:01;;;;;;;4.53;2.30;;;17.80;99.90;;;;;;6141745;23;20351;-85
2022/05/10 23:30:32;;;;;;;5.30;2.50;;;17.80;99.90;;;;;;6161918;23;20063;-84
2022/05/10 23:33:07;;;;;;;3.92;2.35;;;17.70;99.90;;;;;;6198792;23;20005;-85
2022/05/10 23:35:47;;;;;;;5.28;2.67;;;17.70;99.90;;;;;;6174370;23;20008;-85
2022/05/10 23:39:11;;;;;;;5.30;2.60;;;17.60;99.90;;;;;;6163658;23;20032;-84
2022/05/10 23:42:20;;;;;;;3.75;2.30;;;17.40;99.90;;;;;;6179352;23;20445;-85
2022/05/10 23:44:51;;;;;;;4.78;2.35;;;17.50;99.90;;;;;;6068003;23;20057;-84
2022/05/10 23:47:21;;;;;;;4.65;2.47;;;17.50;99.90;;;;;;6066868;23;20010;-85
2022/05/10 23:49:49;;;;;;;5.25;2.45;;;17.50;99.90;;;;;;6117517;23;20435;-85
2022/05/10 23:52:37;;;;;;;4.43;2.42;;;17.60;99.90;;;;;;6156133;23;20009;-84
2022/05/10 23:55:32;;;;;;;4.18;2.50;;;17.50;99.90;;;;;;6181176;23;19997;-85
2022/05/10 23:57:59;;;;;;;5.13;2.33;;;17.40;99.90;;;;;;6150653;23;20001;-84
